sensor_id;sensor_type;location;lat;lon;timestamp;pressure;altitude;pressure_sealevel;temperature;humidity
2673;BME280;1346;51.558;6.996;2022-08-14T00:00:24;100699.31;;;23.77;78.52
2673;BME280;1346;51.558;6.996;2022-08-14T00:02:51;100691.81;;;23.73;78.71
2673;BME280;1346;51.558;6.996;2022-08-14T00:05:20;100695.28;;;23.68;78.86
2673;BME280;1346;51.558;6.996;2022-08-14T00:07:48;100695.19;;;23.63;79.37
2673;BME280;1346;51.558;6.996;2022-08-14T00:10:19;100695.88;;;23.59;79.98
2673;BME280;1346;51.558;6.996;2022-08-14T00:12:51;100689.47;;;23.53;80.27
2673;BME280;1346;51.558;6.996;2022-08-14T00:15:23;100692.66;;;23.50;81.33
2673;BME280;1346;51.558;6.996;2022-08-14T00:17:51;100682.44;;;23.46;82.04
2673;BME280;1346;51.558;6.996;2022-08-14T00:20:20;100673.03;;;23.42;82.23
2673;BME280;1346;51.558;6.996;2022-08-14T00:22:48;100669.63;;;23.35;82.47
2673;BME280;1346;51.558;6.996;2022-08-14T00:25:15;100669.50;;;23.30;82.99
2673;BME280;1346;51.558;6.996;2022-08-14T00:27:41;100670.16;;;23.25;83.43
2673;BME280;1346;51.558;6.996;2022-08-14T00:30:12;100663.72;;;23.20;84.14
2673;BME280;1346;51.558;6.996;2022-08-14T00:32:41;100663.59;;;23.15;84.42
2673;BME280;1346;51.558;6.996;2022-08-14T00:35:09;100670.63;;;23.11;84.70
2673;BME280;1346;51.558;6.996;2022-08-14T00:37:38;100671.09;;;23.08;85.31
2673;BME280;1346;51.558;6.996;2022-08-14T00:40:08;100665.50;;;23.03;85.54
2673;BME280;1346;51.558;6.996;2022-08-14T00:42:35;100667.25;;;22.97;85.87
2673;BME280;1346;51.558;6.996;2022-08-14T00:45:03;100669.63;;;22.94;86.41
2673;BME280;1346;51.558;6.996;2022-08-14T00:47:32;100664.16;;;22.94;86.63
2673;BME280;1346;51.558;6.996;2022-08-14T00:50:02;100656.22;;;22.92;87.17
2673;BME280;1346;51.558;6.996;2022-08-14T00:52:29;100657.97;;;22.87;87.87
2673;BME280;1346;51.558;6.996;2022-08-14T00:54:57;100663.91;;;22.84;88.27
2673;BME280;1346;51.558;6.996;2022-08-14T00:57:26;100658.31;;;22.79;88.49
2673;BME280;1346;51.558;6.996;2022-08-14T00:59:54;100656.50;;;22.72;89.09
2673;BME280;1346;51.558;6.996;2022-08-14T01:02:23;100651.13;;;22.66;89.73
2673;BME280;1346;51.558;6.996;2022-08-14T01:04:54;100647.44;;;22.60;90.00
2673;BME280;1346;51.558;6.996;2022-08-14T01:07:25;100642.91;;;22.54;90.79
2673;BME280;1346;51.558;6.996;2022-08-14T01:09:57;100642.13;;;22.47;91.44
2673;BME280;1346;51.558;6.996;2022-08-14T01:12:27;100635.94;;;22.40;92.29
2673;BME280;1346;51.558;6.996;2022-08-14T01:14:54;100633.53;;;22.32;92.83
2673;BME280;1346;51.558;6.996;2022-08-14T01:17:22;100632.19;;;22.23;93.41
2673;BME280;1346;51.558;6.996;2022-08-14T01:19:50;100631.22;;;22.18;93.66
2673;BME280;1346;51.558;6.996;2022-08-14T01:22:39;100626.44;;;22.13;94.37
2673;BME280;1346;51.558;6.996;2022-08-14T01:25:07;100627.97;;;22.09;94.32
2673;BME280;1346;51.558;6.996;2022-08-14T01:27:37;100615.84;;;22.05;94.73
2673;BME280;1346;51.558;6.996;2022-08-14T01:30:10;100628.03;;;22.03;94.90
2673;BME280;1346;51.558;6.996;2022-08-14T01:32:37;100619.72;;;21.98;95.03
2673;BME280;1346;51.558;6.996;2022-08-14T01:35:06;100625.16;;;21.98;95.64
2673;BME280;1346;51.558;6.996;2022-08-14T01:37:33;100625.41;;;21.96;95.43
2673;BME280;1346;51.558;6.996;2022-08-14T01:40:02;100617.44;;;21.95;95.88
2673;BME280;1346;51.558;6.996;2022-08-14T01:42:29;100621.47;;;21.92;95.97
2673;BME280;1346;51.558;6.996;2022-08-14T01:44:56;100613.72;;;21.89;96.13
2673;BME280;1346;51.558;6.996;2022-08-14T01:47:23;100613.16;;;21.87;96.27
2673;BME280;1346;51.558;6.996;2022-08-14T01:49:51;100604.34;;;21.85;96.46
2673;BME280;1346;51.558;6.996;2022-08-14T01:52:19;100593.91;;;21.82;96.98
2673;BME280;1346;51.558;6.996;2022-08-14T01:54:48;100602.53;;;21.79;97.37
2673;BME280;1346;51.558;6.996;2022-08-14T01:57:16;100600.22;;;21.76;97.50
2673;BME280;1346;51.558;6.996;2022-08-14T01:59:43;100597.34;;;21.71;98.24
2673;BME280;1346;51.558;6.996;2022-08-14T02:02:10;100593.63;;;21.66;98.73
2673;BME280;1346;51.558;6.996;2022-08-14T02:04:39;100590.53;;;21.62;98.53
2673;BME280;1346;51.558;6.996;2022-08-14T02:07:08;100587.22;;;21.60;98.95
2673;BME280;1346;51.558;6.996;2022-08-14T02:09:35;100577.81;;;21.56;99.41
2673;BME280;1346;51.558;6.996;2022-08-14T02:12:05;100579.31;;;21.52;99.49
2673;BME280;1346;51.558;6.996;2022-08-14T02:14:34;100571.00;;;21.47;100.00
2673;BME280;1346;51.558;6.996;2022-08-14T02:17:03;100570.63;;;21.43;100.00
2673;BME280;1346;51.558;6.996;2022-08-14T02:19:34;100565.84;;;21.39;100.00
2673;BME280;1346;51.558;6.996;2022-08-14T02:22:01;100556.22;;;21.36;100.00
2673;BME280;1346;51.558;6.996;2022-08-14T02:24:29;100550.44;;;21.33;100.00
2673;BME280;1346;51.558;6.996;2022-08-14T02:26:58;100547.50;;;21.28;100.00
2673;BME280;1346;51.558;6.996;2022-08-14T02:29:28;100554.50;;;21.24;100.00
2673;BME280;1346;51.558;6.996;2022-08-14T02:31:59;100560.19;;;21.22;100.00
2673;BME280;1346;51.558;6.996;2022-08-14T02:34:31;100558.94;;;21.18;100.00
2673;BME280;1346;51.558;6.996;2022-08-14T02:37:02;100562.97;;;21.16;100.00
2673;BME280;1346;51.558;6.996;2022-08-14T02:39:30;100561.75;;;21.12;100.00
2673;BME280;1346;51.558;6.996;2022-08-14T02:41:58;100557.56;;;21.09;100.00
2673;BME280;1346;51.558;6.996;2022-08-14T02:44:25;100555.06;;;21.08;100.00
2673;BME280;1346;51.558;6.996;2022-08-14T02:46:53;100549.47;;;21.03;100.00
2673;BME280;1346;51.558;6.996;2022-08-14T02:49:22;100553.72;;;20.99;100.00
2673;BME280;1346;51.558;6.996;2022-08-14T02:51:53;100545.34;;;20.94;100.00
2673;BME280;1346;51.558;6.996;2022-08-14T02:54:20;100544.97;;;20.90;100.00
2673;BME280;1346;51.558;6.996;2022-08-14T02:56:48;100541.84;;;20.87;100.00
2673;BME280;1346;51.558;6.996;2022-08-14T02:59:16;100545.84;;;20.84;100.00
2673;BME280;1346;51.558;6.996;2022-08-14T03:01:44;100550.06;;;20.80;100.00
2673;BME280;1346;51.558;6.996;2022-08-14T03:04:12;100555.94;;;20.77;100.00
2673;BME280;1346;51.558;6.996;2022-08-14T03:06:41;100552.81;;;20.74;100.00
2673;BME280;1346;51.558;6.996;2022-08-14T03:09:10;100557.31;;;20.68;100.00
2673;BME280;1346;51.558;6.996;2022-08-14T03:11:37;100556.91;;;20.65;100.00
2673;BME280;1346;51.558;6.996;2022-08-14T03:14:07;100558.41;;;20.61;100.00
2673;BME280;1346;51.558;6.996;2022-08-14T03:16:36;100557.19;;;20.57;100.00
2673;BME280;1346;51.558;6.996;2022-08-14T03:19:05;100564.97;;;20.53;100.00
2673;BME280;1346;51.558;6.996;2022-08-14T03:21:34;100561.63;;;20.51;100.00
2673;BME280;1346;51.558;6.996;2022-08-14T03:24:05;100560.16;;;20.49;100.00
2673;BME280;1346;51.558;6.996;2022-08-14T03:26:36;100557.88;;;20.46;100.00
2673;BME280;1346;51.558;6.996;2022-08-14T03:29:05;100551.81;;;20.43;100.00
2673;BME280;1346;51.558;6.996;2022-08-14T03:31:32;100548.47;;;20.41;100.00
2673;BME280;1346;51.558;6.996;2022-08-14T03:34:01;100548.72;;;20.40;100.00
2673;BME280;1346;51.558;6.996;2022-08-14T03:36:29;100550.81;;;20.38;100.00
2673;BME280;1346;51.558;6.996;2022-08-14T03:38:58;100545.81;;;20.35;100.00
2673;BME280;1346;51.558;6.996;2022-08-14T03:41:27;100545.19;;;20.33;100.00
2673;BME280;1346;51.558;6.996;2022-08-14T03:43:57;100545.41;;;20.31;100.00
2673;BME280;1346;51.558;6.996;2022-08-14T03:46:26;100548.59;;;20.28;100.00
2673;BME280;1346;51.558;6.996;2022-08-14T03:48:53;100556.13;;;20.26;100.00
2673;BME280;1346;51.558;6.996;2022-08-14T03:51:21;100551.34;;;20.22;100.00
2673;BME280;1346;51.558;6.996;2022-08-14T03:53:54;100547.16;;;20.19;100.00
2673;BME280;1346;51.558;6.996;2022-08-14T03:56:22;100554.13;;;20.15;100.00
2673;BME280;1346;51.558;6.996;2022-08-14T03:58:55;100552.84;;;20.11;100.00
2673;BME280;1346;51.558;6.996;2022-08-14T04:01:23;100548.28;;;20.05;100.00
2673;BME280;1346;51.558;6.996;2022-08-14T04:03:53;100544.31;;;20.01;100.00
2673;BME280;1346;51.558;6.996;2022-08-14T04:06:22;100544.78;;;19.98;100.00
2673;BME280;1346;51.558;6.996;2022-08-14T04:08:49;100542.50;;;19.95;100.00
2673;BME280;1346;51.558;6.996;2022-08-14T04:11:18;100547.31;;;19.93;100.00
2673;BME280;1346;51.558;6.996;2022-08-14T04:13:46;100542.31;;;19.90;100.00
2673;BME280;1346;51.558;6.996;2022-08-14T04:16:18;100548.16;;;19.87;100.00
2673;BME280;1346;51.558;6.996;2022-08-14T04:18:51;100541.28;;;19.85;100.00
2673;BME280;1346;51.558;6.996;2022-08-14T04:21:20;100528.13;;;19.82;100.00
2673;BME280;1346;51.558;6.996;2022-08-14T04:23:50;100525.59;;;19.80;100.00
2673;BME280;1346;51.558;6.996;2022-08-14T04:26:18;100520.38;;;19.79;100.00
2673;BME280;1346;51.558;6.996;2022-08-14T04:28:48;100521.22;;;19.79;100.00
2673;BME280;1346;51.558;6.996;2022-08-14T04:31:19;100525.00;;;19.78;100.00
2673;BME280;1346;51.558;6.996;2022-08-14T04:33:46;100527.72;;;19.78;100.00
2673;BME280;1346;51.558;6.996;2022-08-14T04:36:14;100517.91;;;19.77;100.00
2673;BME280;1346;51.558;6.996;2022-08-14T04:38:41;100529.38;;;19.79;100.00
2673;BME280;1346;51.558;6.996;2022-08-14T04:41:25;100527.28;;;19.81;100.00
2673;BME280;1346;51.558;6.996;2022-08-14T04:44:12;100526.22;;;19.82;100.00
2673;BME280;1346;51.558;6.996;2022-08-14T04:46:41;100522.47;;;19.83;100.00
2673;BME280;1346;51.558;6.996;2022-08-14T04:49:30;100519.31;;;19.86;100.00
2673;BME280;1346;51.558;6.996;2022-08-14T04:51:56;100518.25;;;19.87;100.00
2673;BME280;1346;51.558;6.996;2022-08-14T04:54:25;100515.53;;;19.87;100.00
2673;BME280;1346;51.558;6.996;2022-08-14T04:56:53;100512.59;;;19.89;100.00
2673;BME280;1346;51.558;6.996;2022-08-14T04:59:21;100509.69;;;19.90;100.00
2673;BME280;1346;51.558;6.996;2022-08-14T05:01:50;100511.13;;;19.93;100.00
2673;BME280;1346;51.558;6.996;2022-08-14T05:04:18;100507.16;;;19.95;100.00
2673;BME280;1346;51.558;6.996;2022-08-14T05:06:48;100504.44;;;19.95;100.00
2673;BME280;1346;51.558;6.996;2022-08-14T05:09:15;100514.84;;;19.98;100.00
2673;BME280;1346;51.558;6.996;2022-08-14T05:11:42;100515.47;;;20.00;100.00
2673;BME280;1346;51.558;6.996;2022-08-14T05:14:09;100509.59;;;20.03;100.00
2673;BME280;1346;51.558;6.996;2022-08-14T05:16:37;100509.16;;;20.06;100.00
2673;BME280;1346;51.558;6.996;2022-08-14T05:19:05;100503.25;;;20.09;100.00
2673;BME280;1346;51.558;6.996;2022-08-14T05:21:33;100500.72;;;20.14;100.00
2673;BME280;1346;51.558;6.996;2022-08-14T05:24:01;100504.72;;;20.18;100.00
2673;BME280;1346;51.558;6.996;2022-08-14T05:26:28;100501.53;;;20.21;100.00
2673;BME280;1346;51.558;6.996;2022-08-14T05:28:55;100509.06;;;20.26;100.00
2673;BME280;1346;51.558;6.996;2022-08-14T05:31:23;100502.94;;;20.30;100.00
2673;BME280;1346;51.558;6.996;2022-08-14T05:33:50;100507.50;;;20.36;100.00
2673;BME280;1346;51.558;6.996;2022-08-14T05:36:18;100514.78;;;20.42;100.00
2673;BME280;1346;51.558;6.996;2022-08-14T05:38:46;100511.16;;;20.49;100.00
2673;BME280;1346;51.558;6.996;2022-08-14T05:41:16;100503.19;;;20.54;100.00
2673;BME280;1346;51.558;6.996;2022-08-14T05:43:45;100501.22;;;20.61;100.00
2673;BME280;1346;51.558;6.996;2022-08-14T05:46:14;100502.84;;;20.68;100.00
2673;BME280;1346;51.558;6.996;2022-08-14T05:48:46;100491.06;;;20.74;100.00
2673;BME280;1346;51.558;6.996;2022-08-14T05:51:14;100501.66;;;20.82;100.00
2673;BME280;1346;51.558;6.996;2022-08-14T05:53:43;100495.09;;;20.90;100.00
2673;BME280;1346;51.558;6.996;2022-08-14T05:56:10;100501.31;;;20.97;100.00
2673;BME280;1346;51.558;6.996;2022-08-14T05:58:37;100492.88;;;21.05;100.00
2673;BME280;1346;51.558;6.996;2022-08-14T06:01:05;100499.94;;;21.12;100.00
2673;BME280;1346;51.558;6.996;2022-08-14T06:03:31;100498.16;;;21.18;100.00
2673;BME280;1346;51.558;6.996;2022-08-14T06:05:58;100497.28;;;21.24;100.00
2673;BME280;1346;51.558;6.996;2022-08-14T06:08:28;100498.03;;;21.31;100.00
2673;BME280;1346;51.558;6.996;2022-08-14T06:10:59;100503.41;;;21.37;100.00
2673;BME280;1346;51.558;6.996;2022-08-14T06:13:28;100505.81;;;21.45;100.00
2673;BME280;1346;51.558;6.996;2022-08-14T06:15:55;100507.41;;;21.53;100.00
2673;BME280;1346;51.558;6.996;2022-08-14T06:18:22;100501.63;;;21.61;100.00
2673;BME280;1346;51.558;6.996;2022-08-14T06:20:49;100493.97;;;21.70;100.00
2673;BME280;1346;51.558;6.996;2022-08-14T06:23:16;100487.59;;;21.76;100.00
2673;BME280;1346;51.558;6.996;2022-08-14T06:25:44;100493.59;;;21.84;100.00
2673;BME280;1346;51.558;6.996;2022-08-14T06:28:17;100487.84;;;21.92;100.00
2673;BME280;1346;51.558;6.996;2022-08-14T06:30:44;100485.00;;;21.99;100.00
2673;BME280;1346;51.558;6.996;2022-08-14T06:33:11;100493.69;;;22.07;100.00
2673;BME280;1346;51.558;6.996;2022-08-14T06:35:39;100490.00;;;22.13;100.00
2673;BME280;1346;51.558;6.996;2022-08-14T06:38:06;100491.00;;;22.19;100.00
2673;BME280;1346;51.558;6.996;2022-08-14T06:40:35;100498.00;;;22.26;100.00
2673;BME280;1346;51.558;6.996;2022-08-14T06:43:04;100484.84;;;22.35;100.00
2673;BME280;1346;51.558;6.996;2022-08-14T06:45:35;100485.56;;;22.42;100.00
2673;BME280;1346;51.558;6.996;2022-08-14T06:48:03;100485.81;;;22.52;100.00
2673;BME280;1346;51.558;6.996;2022-08-14T06:50:30;100477.56;;;22.58;100.00
2673;BME280;1346;51.558;6.996;2022-08-14T06:52:57;100482.19;;;22.69;100.00
2673;BME280;1346;51.558;6.996;2022-08-14T06:55:25;100480.78;;;22.79;100.00
2673;BME280;1346;51.558;6.996;2022-08-14T06:57:52;100475.53;;;22.89;100.00
2673;BME280;1346;51.558;6.996;2022-08-14T07:00:21;100475.19;;;22.97;100.00
2673;BME280;1346;51.558;6.996;2022-08-14T07:02:51;100478.13;;;23.07;100.00
2673;BME280;1346;51.558;6.996;2022-08-14T07:05:36;100479.94;;;23.13;100.00
2673;BME280;1346;51.558;6.996;2022-08-14T07:08:15;100481.44;;;23.20;100.00
2673;BME280;1346;51.558;6.996;2022-08-14T07:10:43;100481.09;;;23.28;100.00
2673;BME280;1346;51.558;6.996;2022-08-14T07:13:12;100483.22;;;23.38;100.00
2673;BME280;1346;51.558;6.996;2022-08-14T07:15:40;100480.69;;;23.48;100.00
2673;BME280;1346;51.558;6.996;2022-08-14T07:18:11;100478.66;;;23.55;100.00
2673;BME280;1346;51.558;6.996;2022-08-14T07:20:40;100471.50;;;23.65;100.00
2673;BME280;1346;51.558;6.996;2022-08-14T07:23:09;100467.03;;;23.76;100.00
2673;BME280;1346;51.558;6.996;2022-08-14T07:25:37;100467.72;;;23.83;100.00
2673;BME280;1346;51.558;6.996;2022-08-14T07:28:10;100458.28;;;23.90;100.00
2673;BME280;1346;51.558;6.996;2022-08-14T07:30:37;100472.44;;;23.99;99.83
2673;BME280;1346;51.558;6.996;2022-08-14T07:33:06;100469.03;;;24.09;99.73
2673;BME280;1346;51.558;6.996;2022-08-14T07:35:35;100463.75;;;24.19;99.17
2673;BME280;1346;51.558;6.996;2022-08-14T07:38:04;100466.16;;;24.32;98.87
2673;BME280;1346;51.558;6.996;2022-08-14T07:40:33;100465.00;;;24.44;98.48
2673;BME280;1346;51.558;6.996;2022-08-14T07:43:00;100460.88;;;24.58;98.14
2673;BME280;1346;51.558;6.996;2022-08-14T07:45:27;100471.66;;;24.65;97.18
2673;BME280;1346;51.558;6.996;2022-08-14T07:47:54;100472.34;;;24.72;96.66
2673;BME280;1346;51.558;6.996;2022-08-14T07:50:23;100468.84;;;24.76;96.07
2673;BME280;1346;51.558;6.996;2022-08-14T07:52:52;100471.16;;;24.84;95.68
2673;BME280;1346;51.558;6.996;2022-08-14T07:55:19;100465.50;;;24.91;95.15
2673;BME280;1346;51.558;6.996;2022-08-14T07:57:46;100463.16;;;24.99;94.66
2673;BME280;1346;51.558;6.996;2022-08-14T08:00:17;100449.84;;;25.08;93.94
2673;BME280;1346;51.558;6.996;2022-08-14T08:02:47;100452.16;;;25.16;93.51
2673;BME280;1346;51.558;6.996;2022-08-14T08:05:15;100454.44;;;25.24;92.36
2673;BME280;1346;51.558;6.996;2022-08-14T08:07:43;100448.50;;;25.32;91.49
2673;BME280;1346;51.558;6.996;2022-08-14T08:10:15;100448.13;;;25.40;91.81
2673;BME280;1346;51.558;6.996;2022-08-14T08:13:04;100435.06;;;25.52;91.65
2673;BME280;1346;51.558;6.996;2022-08-14T08:15:35;100439.81;;;25.57;90.88
2673;BME280;1346;51.558;6.996;2022-08-14T08:18:04;100432.19;;;25.64;90.13
2673;BME280;1346;51.558;6.996;2022-08-14T08:20:34;100433.31;;;25.68;89.58
2673;BME280;1346;51.558;6.996;2022-08-14T08:23:02;100428.50;;;25.80;89.72
2673;BME280;1346;51.558;6.996;2022-08-14T08:25:34;100423.38;;;25.88;88.88
2673;BME280;1346;51.558;6.996;2022-08-14T08:28:04;100421.00;;;25.97;88.16
2673;BME280;1346;51.558;6.996;2022-08-14T08:30:34;100426.63;;;26.07;87.03
2673;BME280;1346;51.558;6.996;2022-08-14T08:33:04;100426.97;;;26.15;87.49
2673;BME280;1346;51.558;6.996;2022-08-14T08:35:33;100424.63;;;26.29;86.93
2673;BME280;1346;51.558;6.996;2022-08-14T08:38:03;100419.72;;;26.36;84.72
2673;BME280;1346;51.558;6.996;2022-08-14T08:40:35;100421.72;;;26.46;82.49
2673;BME280;1346;51.558;6.996;2022-08-14T08:43:04;100420.16;;;26.55;82.85
2673;BME280;1346;51.558;6.996;2022-08-14T08:45:33;100419.97;;;26.66;83.56
2673;BME280;1346;51.558;6.996;2022-08-14T08:48:01;100419.47;;;26.69;81.88
2673;BME280;1346;51.558;6.996;2022-08-14T08:50:32;100423.31;;;26.73;81.59
2673;BME280;1346;51.558;6.996;2022-08-14T08:53:01;100423.34;;;26.78;81.25
2673;BME280;1346;51.558;6.996;2022-08-14T08:55:34;100429.41;;;26.80;79.71
2673;BME280;1346;51.558;6.996;2022-08-14T08:58:04;100421.16;;;26.80;80.14
2673;BME280;1346;51.558;6.996;2022-08-14T09:00:34;100418.75;;;26.89;79.85
2673;BME280;1346;51.558;6.996;2022-08-14T09:03:05;100414.94;;;27.00;79.88
2673;BME280;1346;51.558;6.996;2022-08-14T09:05:35;100413.63;;;27.07;79.14
2673;BME280;1346;51.558;6.996;2022-08-14T09:08:12;100420.28;;;27.16;78.60
2673;BME280;1346;51.558;6.996;2022-08-14T09:10:41;100426.13;;;27.30;76.10
2673;BME280;1346;51.558;6.996;2022-08-14T09:13:08;100425.34;;;27.40;77.02
2673;BME280;1346;51.558;6.996;2022-08-14T09:15:39;100421.53;;;27.46;75.49
2673;BME280;1346;51.558;6.996;2022-08-14T09:18:08;100418.25;;;27.59;75.27
2673;BME280;1346;51.558;6.996;2022-08-14T09:20:38;100403.97;;;27.72;74.12
2673;BME280;1346;51.558;6.996;2022-08-14T09:23:06;100407.00;;;27.85;70.39
2673;BME280;1346;51.558;6.996;2022-08-14T09:25:34;100391.09;;;27.92;70.50
2673;BME280;1346;51.558;6.996;2022-08-14T09:28:04;100390.81;;;28.04;70.34
2673;BME280;1346;51.558;6.996;2022-08-14T09:30:33;100396.88;;;28.16;70.55
2673;BME280;1346;51.558;6.996;2022-08-14T09:33:25;100398.56;;;28.27;68.74
2673;BME280;1346;51.558;6.996;2022-08-14T09:36:11;100400.75;;;28.35;66.43
2673;BME280;1346;51.558;6.996;2022-08-14T09:38:49;100398.81;;;28.40;65.08
2673;BME280;1346;51.558;6.996;2022-08-14T09:41:32;100396.34;;;28.54;63.89
2673;BME280;1346;51.558;6.996;2022-08-14T09:44:08;100389.69;;;28.65;64.48
2673;BME280;1346;51.558;6.996;2022-08-14T09:46:51;100384.19;;;28.65;61.82
2673;BME280;1346;51.558;6.996;2022-08-14T09:49:29;100389.97;;;28.69;61.44
2673;BME280;1346;51.558;6.996;2022-08-14T09:52:04;100379.75;;;28.74;58.60
2673;BME280;1346;51.558;6.996;2022-08-14T09:54:37;100383.06;;;28.81;59.90
2673;BME280;1346;51.558;6.996;2022-08-14T09:57:05;100374.47;;;28.93;59.10
2673;BME280;1346;51.558;6.996;2022-08-14T09:59:44;100372.47;;;29.08;58.32
2673;BME280;1346;51.558;6.996;2022-08-14T10:02:24;100366.38;;;29.21;57.39
2673;BME280;1346;51.558;6.996;2022-08-14T10:05:00;100361.88;;;29.35;57.55
2673;BME280;1346;51.558;6.996;2022-08-14T10:07:32;100362.94;;;29.44;56.40
2673;BME280;1346;51.558;6.996;2022-08-14T10:10:00;100361.00;;;29.45;54.87
2673;BME280;1346;51.558;6.996;2022-08-14T10:12:42;100358.22;;;29.50;55.50
2673;BME280;1346;51.558;6.996;2022-08-14T10:15:19;100342.69;;;29.59;54.08
2673;BME280;1346;51.558;6.996;2022-08-14T10:17:47;100334.09;;;29.65;51.90
2673;BME280;1346;51.558;6.996;2022-08-14T10:20:15;100320.25;;;29.76;52.51
2673;BME280;1346;51.558;6.996;2022-08-14T10:22:47;100323.50;;;29.83;51.86
2673;BME280;1346;51.558;6.996;2022-08-14T10:25:15;100319.03;;;29.87;51.21
2673;BME280;1346;51.558;6.996;2022-08-14T10:27:44;100317.41;;;29.86;51.70
2673;BME280;1346;51.558;6.996;2022-08-14T10:30:14;100317.19;;;29.77;50.42
2673;BME280;1346;51.558;6.996;2022-08-14T10:32:44;100319.44;;;29.70;51.24
2673;BME280;1346;51.558;6.996;2022-08-14T10:35:14;100316.91;;;29.79;52.62
2673;BME280;1346;51.558;6.996;2022-08-14T10:37:44;100323.72;;;29.91;52.11
2673;BME280;1346;51.558;6.996;2022-08-14T10:40:14;100315.66;;;29.95;51.66
2673;BME280;1346;51.558;6.996;2022-08-14T10:42:42;100319.97;;;30.06;51.26
2673;BME280;1346;51.558;6.996;2022-08-14T10:45:19;100322.44;;;30.07;49.40
2673;BME280;1346;51.558;6.996;2022-08-14T10:47:48;100308.38;;;30.04;48.78
2673;BME280;1346;51.558;6.996;2022-08-14T10:50:16;100308.97;;;30.01;48.06
2673;BME280;1346;51.558;6.996;2022-08-14T10:52:43;100308.69;;;30.02;49.06
2673;BME280;1346;51.558;6.996;2022-08-14T10:55:14;100297.53;;;30.12;51.72
2673;BME280;1346;51.558;6.996;2022-08-14T10:57:49;100306.53;;;30.28;51.83
2673;BME280;1346;51.558;6.996;2022-08-14T11:00:19;100303.09;;;30.41;51.56
2673;BME280;1346;51.558;6.996;2022-08-14T11:02:59;100292.66;;;30.56;50.38
2673;BME280;1346;51.558;6.996;2022-08-14T11:05:39;100293.38;;;30.67;48.27
2673;BME280;1346;51.558;6.996;2022-08-14T11:08:07;100289.44;;;30.73;47.21
2673;BME280;1346;51.558;6.996;2022-08-14T11:10:44;100282.91;;;30.64;45.39
2673;BME280;1346;51.558;6.996;2022-08-14T11:13:17;100280.22;;;30.59;46.69
2673;BME280;1346;51.558;6.996;2022-08-14T11:15:46;100289.50;;;30.68;47.29
2673;BME280;1346;51.558;6.996;2022-08-14T11:18:16;100280.25;;;30.77;45.72
2673;BME280;1346;51.558;6.996;2022-08-14T11:20:49;100285.38;;;30.89;44.78
2673;BME280;1346;51.558;6.996;2022-08-14T11:23:20;100270.63;;;30.99;44.35
2673;BME280;1346;51.558;6.996;2022-08-14T11:25:48;100265.09;;;30.99;44.07
2673;BME280;1346;51.558;6.996;2022-08-14T11:28:15;100262.66;;;30.92;43.82
2673;BME280;1346;51.558;6.996;2022-08-14T11:30:48;100270.75;;;31.07;43.97
2673;BME280;1346;51.558;6.996;2022-08-14T11:33:21;100263.06;;;31.23;43.98
2673;BME280;1346;51.558;6.996;2022-08-14T11:35:49;100254.84;;;31.36;42.92
2673;BME280;1346;51.558;6.996;2022-08-14T11:38:17;100260.00;;;31.43;43.35
2673;BME280;1346;51.558;6.996;2022-08-14T11:40:45;100254.13;;;31.49;43.51
2673;BME280;1346;51.558;6.996;2022-08-14T11:43:12;100261.81;;;31.52;41.85
2673;BME280;1346;51.558;6.996;2022-08-14T11:45:40;100247.44;;;31.50;42.14
2673;BME280;1346;51.558;6.996;2022-08-14T11:48:16;100241.91;;;31.50;42.81
2673;BME280;1346;51.558;6.996;2022-08-14T11:50:45;100240.63;;;31.61;42.22
2673;BME280;1346;51.558;6.996;2022-08-14T11:53:23;100244.16;;;31.80;41.27
2673;BME280;1346;51.558;6.996;2022-08-14T11:55:56;100243.91;;;31.96;39.81
2673;BME280;1346;51.558;6.996;2022-08-14T11:58:28;100252.84;;;32.06;37.82
2673;BME280;1346;51.558;6.996;2022-08-14T12:00:59;100252.56;;;32.08;39.06
2673;BME280;1346;51.558;6.996;2022-08-14T12:03:41;100248.88;;;32.12;39.55
2673;BME280;1346;51.558;6.996;2022-08-14T12:06:10;100246.72;;;32.23;39.82
2673;BME280;1346;51.558;6.996;2022-08-14T12:08:38;100241.19;;;32.36;39.90
2673;BME280;1346;51.558;6.996;2022-08-14T12:11:08;100240.31;;;32.41;39.45
2673;BME280;1346;51.558;6.996;2022-08-14T12:13:35;100238.06;;;32.43;37.95
2673;BME280;1346;51.558;6.996;2022-08-14T12:16:06;100236.28;;;32.47;38.27
2673;BME280;1346;51.558;6.996;2022-08-14T12:18:35;100230.84;;;32.42;39.78
2673;BME280;1346;51.558;6.996;2022-08-14T12:21:16;100226.03;;;32.47;40.70
2673;BME280;1346;51.558;6.996;2022-08-14T12:23:44;100217.16;;;32.72;40.34
2673;BME280;1346;51.558;6.996;2022-08-14T12:26:15;100212.03;;;32.93;38.16
2673;BME280;1346;51.558;6.996;2022-08-14T12:28:47;100208.25;;;33.11;38.45
2673;BME280;1346;51.558;6.996;2022-08-14T12:31:18;100205.88;;;33.40;38.74
2673;BME280;1346;51.558;6.996;2022-08-14T12:33:56;100204.66;;;33.68;37.50
2673;BME280;1346;51.558;6.996;2022-08-14T12:36:26;100206.31;;;33.47;37.03
2673;BME280;1346;51.558;6.996;2022-08-14T12:38:55;100205.25;;;33.21;36.75
2673;BME280;1346;51.558;6.996;2022-08-14T12:41:24;100203.97;;;33.05;36.96
2673;BME280;1346;51.558;6.996;2022-08-14T12:43:54;100192.88;;;33.05;37.32
2673;BME280;1346;51.558;6.996;2022-08-14T12:46:24;100186.19;;;33.28;37.19
2673;BME280;1346;51.558;6.996;2022-08-14T12:48:53;100180.16;;;33.48;37.74
2673;BME280;1346;51.558;6.996;2022-08-14T12:51:22;100171.47;;;33.63;37.32
2673;BME280;1346;51.558;6.996;2022-08-14T12:53:52;100163.22;;;33.80;37.63
2673;BME280;1346;51.558;6.996;2022-08-14T12:56:21;100150.66;;;33.91;36.44
2673;BME280;1346;51.558;6.996;2022-08-14T12:58:52;100147.97;;;34.00;35.33
2673;BME280;1346;51.558;6.996;2022-08-14T13:01:22;100149.97;;;34.16;36.36
2673;BME280;1346;51.558;6.996;2022-08-14T13:03:51;100152.16;;;34.37;35.77
2673;BME280;1346;51.558;6.996;2022-08-14T13:06:30;100151.75;;;34.60;35.14
2673;BME280;1346;51.558;6.996;2022-08-14T13:08:58;100137.38;;;34.67;34.38
2673;BME280;1346;51.558;6.996;2022-08-14T13:11:31;100132.78;;;34.62;33.55
2673;BME280;1346;51.558;6.996;2022-08-14T13:14:02;100125.78;;;34.82;33.55
2673;BME280;1346;51.558;6.996;2022-08-14T13:16:29;100124.31;;;34.93;33.18
2673;BME280;1346;51.558;6.996;2022-08-14T13:18:57;100116.78;;;35.19;34.33
2673;BME280;1346;51.558;6.996;2022-08-14T13:21:27;100117.41;;;35.33;33.87